Time;durP1;ratioP1;P1;durP2;ratioP2;P2;SDS_P1;SDS_P2;PMS_P1;PMS_P2;Temp;Humidity;BMP_temperature;BMP_pressure;BME280_temperature;BME280_humidity;BME280_pressure;Samples;Min_cycle;Max_cycle;Signal;HPM_P1;HPM_P2
2024/04/06 00:01:22;;;;;;;9.20;3.60;;;;;;;8.93;100.00;93203.72;4849097;29;20038;-82
2024/04/06 00:03:49;;;;;;;9.45;3.88;;;;;;;8.93;100.00;93198.50;4847489;29;20053;-82
2024/04/06 00:06:15;;;;;;;12.20;3.90;;;;;;;8.92;100.00;93201.38;4850840;29;20045;-81
2024/04/06 00:08:41;;;;;;;9.50;3.67;;;;;;;8.91;100.00;93195.34;4865255;29;20052;-81
2024/04/06 00:11:08;;;;;;;6.88;3.50;;;;;;;8.85;100.00;93190.38;4855230;29;20101;-82
2024/04/06 00:13:34;;;;;;;13.25;4.13;;;;;;;8.89;100.00;93196.66;4856185;29;20041;-80
2024/04/06 00:15:59;;;;;;;11.95;3.83;;;;;;;8.88;100.00;93195.88;4849328;29;20037;-80
2024/04/06 00:18:25;;;;;;;10.45;3.58;;;;;;;8.83;100.00;93187.28;4870918;29;20052;-82
2024/04/06 00:20:51;;;;;;;11.85;4.13;;;;;;;8.85;100.00;93190.38;4875849;29;20065;-82
2024/04/06 00:23:17;;;;;;;10.38;3.70;;;;;;;8.83;100.00;93193.28;4875302;29;20214;-83
2024/04/06 00:25:43;;;;;;;9.93;3.67;;;;;;;8.83;100.00;93193.28;4867920;29;20079;-83
2024/04/06 00:28:08;;;;;;;9.35;3.78;;;;;;;8.91;100.00;93197.97;4856350;29;20535;-82
2024/04/06 00:30:34;;;;;;;9.52;3.63;;;;;;;8.93;100.00;93195.88;4854859;29;20137;-80
2024/04/06 00:33:00;;;;;;;9.07;3.80;;;;;;;8.94;100.00;93197.47;4855872;29;20124;-82
2024/04/06 00:35:25;;;;;;;8.13;3.50;;;;;;;8.93;100.00;93190.66;4860529;29;20029;-81
2024/04/06 00:37:51;;;;;;;12.55;3.75;;;;;;;8.90;100.00;93191.19;4860740;29;20049;-79
2024/04/06 00:40:17;;;;;;;7.35;3.47;;;;;;;8.85;100.00;93188.56;4860362;29;20037;-82
2024/04/06 00:42:44;;;;;;;8.55;3.50;;;;;;;8.81;100.00;93182.31;4859803;29;20450;-83
2024/04/06 00:45:10;;;;;;;10.52;3.60;;;;;;;8.79;100.00;93184.38;4860560;29;20511;-79
2024/04/06 00:47:36;;;;;;;7.38;3.47;;;;;;;8.78;100.00;93187.25;4860280;29;20037;-82
2024/04/06 00:50:08;;;;;;;7.70;3.15;;;;;;;8.76;100.00;93184.91;4860884;29;20037;-81
2024/04/06 00:52:33;;;;;;;;;;;;;;;8.75;100.00;93178.88;4860150;29;20042;-80
2024/04/06 00:54:59;;;;;;;10.55;3.08;;;;;;;8.74;100.00;93177.31;4860564;29;19924;-82
2024/04/06 00:57:25;;;;;;;9.18;3.10;;;;;;;8.69;100.00;93171.28;4860494;29;20072;-80
2024/04/06 00:59:51;;;;;;;11.15;3.33;;;;;;;8.70;100.00;93183.31;4860550;29;20041;-82
2024/04/06 01:02:16;;;;;;;7.40;3.05;;;;;;;8.69;100.00;93184.34;4860734;29;20105;-80
2024/04/06 01:04:42;;;;;;;8.48;3.30;;;;;;;8.68;100.00;93183.56;4860871;29;20033;-80
2024/04/06 01:07:08;;;;;;;7.47;2.88;;;;;;;8.68;100.00;93180.94;4859271;29;20073;-81
2024/04/06 01:09:33;;;;;;;7.20;3.00;;;;;;;8.68;100.00;93177.56;4860572;29;20076;-83
2024/04/06 01:11:59;;;;;;;7.15;3.25;;;;;;;8.69;100.00;93179.13;4860624;29;20046;-81
2024/04/06 01:14:25;;;;;;;10.40;3.45;;;;;;;8.68;100.00;93180.16;4860264;29;20037;-81
2024/04/06 01:16:52;;;;;;;8.70;3.20;;;;;;;8.67;100.00;93170.75;4860132;29;20498;-82
2024/04/06 01:19:19;;;;;;;6.13;2.90;;;;;;;8.68;100.00;93177.56;4860278;29;20037;-81
2024/04/06 01:21:45;;;;;;;7.13;2.80;;;;;;;8.65;100.00;93172.88;4859524;29;20068;-82
2024/04/06 01:24:30;;;;;;;7.80;2.80;;;;;;;8.64;100.00;93173.88;4860521;29;20038;-80
2024/04/06 01:26:59;;;;;;;5.78;2.90;;;;;;;8.62;100.00;93168.13;4860519;29;20033;-81
2024/04/06 01:29:28;;;;;;;9.52;2.75;;;;;;;8.61;100.00;93171.81;4860266;29;20057;-82
2024/04/06 01:31:55;;;;;;;7.85;2.97;;;;;;;8.57;100.00;93179.34;4860247;29;20069;-80
2024/04/06 01:34:21;;;;;;;9.55;3.08;;;;;;;8.54;100.00;93174.66;4860358;29;20029;-82
2024/04/06 01:36:47;;;;;;;7.05;3.20;;;;;;;8.50;100.00;93169.16;4860148;29;20464;-80
2024/04/06 01:39:13;;;;;;;6.90;3.05;;;;;;;8.47;100.00;93171.50;4859919;29;20064;-81
2024/04/06 01:41:42;;;;;;;7.57;3.17;;;;;;;8.47;100.00;93176.72;4860738;29;20679;-80
2024/04/06 01:44:08;;;;;;;5.43;2.63;;;;;;;8.45;100.00;93171.75;4857816;29;20412;-82
2024/04/06 01:46:34;;;;;;;10.38;3.15;;;;;;;8.37;100.00;93166.97;4859996;29;20128;-81
2024/04/06 01:49:00;;;;;;;4.88;2.80;;;;;;;8.42;100.00;93179.28;4859433;29;20081;-82
2024/04/06 01:51:26;;;;;;;5.93;2.83;;;;;;;8.40;100.00;93165.69;4859665;29;20418;-81
2024/04/06 01:53:52;;;;;;;7.43;2.80;;;;;;;8.39;100.00;93166.75;4858132;29;20400;-82
2024/04/06 01:56:18;;;;;;;11.45;3.20;;;;;;;8.38;100.00;93165.97;4860686;29;20042;-80
2024/04/06 01:58:45;;;;;;;9.68;3.65;;;;;;;8.37;100.00;93158.38;4859955;29;20053;-79
2024/04/06 02:01:12;;;;;;;8.13;2.92;;;;;;;8.37;100.00;93161.00;4859688;29;20064;-82
2024/04/06 02:03:38;;;;;;;10.50;3.35;;;;;;;8.37;100.00;93159.16;4860405;29;20040;-81
2024/04/06 02:06:04;;;;;;;5.97;3.20;;;;;;;8.35;100.00;93161.22;4859817;29;20042;-82
2024/04/06 02:08:30;;;;;;;8.30;3.25;;;;;;;8.36;100.00;93159.44;4859605;29;20036;-80
2024/04/06 02:10:56;;;;;;;10.43;3.20;;;;;;;8.34;100.00;93157.06;4859602;29;20042;-82
2024/04/06 02:13:21;;;;;;;10.30;3.72;;;;;;;8.31;100.00;93160.19;4858333;29;20443;-81
2024/04/06 02:15:47;;;;;;;9.90;3.63;;;;;;;8.30;100.00;93158.63;4859557;29;20109;-83
2024/04/06 02:18:12;;;;;;;7.28;3.53;;;;;;;8.30;100.00;93156.00;4859391;29;20036;-82
2024/04/06 02:20:40;;;;;;;7.63;3.60;;;;;;;8.31;100.00;93157.59;4858101;29;20049;-82
2024/04/06 02:23:06;;;;;;;12.07;3.75;;;;;;;8.31;100.00;93152.38;4859364;29;20488;-80
2024/04/06 02:25:32;;;;;;;8.57;3.10;;;;;;;8.31;100.00;93163.59;4859591;29;20049;-82
2024/04/06 02:27:58;;;;;;;8.18;3.60;;;;;;;8.30;100.00;93162.00;4858780;29;20057;-82
2024/04/06 02:30:23;;;;;;;10.00;3.10;;;;;;;8.28;100.00;93163.31;4859299;29;20491;-80
2024/04/06 02:32:49;;;;;;;7.45;3.67;;;;;;;8.28;100.00;93163.31;4859147;29;20083;-81
2024/04/06 02:35:15;;;;;;;9.88;3.22;;;;;;;8.27;100.00;93151.31;4859011;29;20048;-83
2024/04/06 02:37:44;;;;;;;9.15;3.50;;;;;;;8.26;100.00;93149.72;4859262;29;20106;-81
2024/04/06 02:40:11;;;;;;;8.10;3.53;;;;;;;8.22;100.00;93144.25;4857806;29;20500;-81
2024/04/06 02:42:37;;;;;;;10.45;3.03;;;;;;;8.24;100.00;93146.59;4857768;29;20438;-81
2024/04/06 02:45:07;;;;;;;9.98;3.88;;;;;;;8.23;100.00;93155.47;4858638;29;20041;-80
2024/04/06 02:47:33;;;;;;;7.55;3.50;;;;;;;8.22;100.00;93151.28;4857235;29;20085;-81
2024/04/06 02:50:00;;;;;;;7.03;3.22;;;;;;;8.21;100.00;93157.53;4858905;29;20388;-79
2024/04/06 02:52:26;;;;;;;11.45;3.80;;;;;;;8.18;100.00;93152.84;4857335;29;20046;-83
2024/04/06 02:54:51;;;;;;;12.73;3.70;;;;;;;8.16;100.00;93152.31;4857867;29;20039;-82
2024/04/06 02:57:18;;;;;;;8.32;3.65;;;;;;;8.09;100.00;93140.28;4858709;29;20500;-82
2024/04/06 02:59:45;;;;;;;8.38;3.50;;;;;;;8.13;100.00;93146.56;4857480;29;20037;-80
2024/04/06 03:02:11;;;;;;;12.15;3.88;;;;;;;8.12;100.00;93157.22;4859118;29;20255;-83
2024/04/06 03:04:40;;;;;;;6.97;3.15;;;;;;;8.12;100.00;93149.41;4857144;29;20404;-81
2024/04/06 03:07:06;;;;;;;11.50;3.70;;;;;;;8.10;100.00;93154.09;4858345;29;20487;-77
2024/04/06 03:09:35;;;;;;;10.90;3.58;;;;;;;8.07;100.00;93150.16;4858131;29;20048;-80
2024/04/06 03:12:02;;;;;;;8.55;3.40;;;;;;;8.06;100.00;93145.19;4859065;29;20077;-82
2024/04/06 03:14:28;;;;;;;9.80;3.80;;;;;;;8.06;100.00;93137.38;4859389;29;20557;-83
2024/04/06 03:16:54;;;;;;;8.82;3.17;;;;;;;8.04;100.00;93131.66;4858672;29;20159;-80
2024/04/06 03:19:20;;;;;;;7.68;3.20;;;;;;;8.01;100.00;93134.75;4859518;29;20133;-81
2024/04/06 03:21:46;;;;;;;10.40;4.25;;;;;;;8.02;100.00;93142.34;4858615;29;20038;-82
2024/04/06 03:24:11;;;;;;;9.23;3.42;;;;;;;8.01;100.00;93143.34;4858645;29;20304;-82
2024/04/06 03:26:37;;;;;;;12.50;3.60;;;;;;;8.01;100.00;93135.53;4858256;29;20053;-82
2024/04/06 03:29:03;;;;;;;6.60;3.53;;;;;;;7.99;100.00;93135.00;4859114;29;20057;-83
2024/04/06 03:31:29;;;;;;;11.88;3.50;;;;;;;7.98;100.00;93130.84;4858746;29;20045;-82
2024/04/06 03:33:54;;;;;;;7.88;3.50;;;;;;;7.97;100.00;93136.31;4857632;29;20049;-80
2024/04/06 03:36:20;;;;;;;10.27;3.42;;;;;;;7.96;100.00;93132.13;4859111;29;20274;-81
2024/04/06 03:38:46;;;;;;;11.00;3.72;;;;;;;7.94;100.00;93127.16;4858947;29;20106;-82
2024/04/06 03:41:11;;;;;;;7.35;3.67;;;;;;;7.95;100.00;93130.56;4858476;29;20056;-82
2024/04/06 03:43:37;;;;;;;8.93;3.83;;;;;;;7.95;100.00;93144.38;4859582;29;20085;-82
2024/04/06 03:46:03;;;;;;;12.90;3.60;;;;;;;7.95;100.00;93146.19;4858770;29;20562;-82
2024/04/06 03:48:30;;;;;;;7.70;3.50;;;;;;;7.92;100.00;93143.09;4859404;29;20038;-83
2024/04/06 03:50:56;;;;;;;11.18;3.70;;;;;;;7.92;100.00;93144.88;4858665;29;20042;-81
2024/04/06 03:53:30;;;;;;;10.75;3.83;;;;;;;7.88;100.00;93147.22;4858426;29;20097;-82
2024/04/06 03:55:55;;;;;;;10.85;3.45;;;;;;;7.91;100.00;93138.09;4857661;29;20419;-81
2024/04/06 03:58:21;;;;;;;6.28;3.83;;;;;;;7.92;100.00;93137.06;4858250;29;20055;-81
2024/04/06 04:00:47;;;;;;;10.93;3.53;;;;;;;7.93;100.00;93136.03;4857717;29;20045;-81
2024/04/06 04:03:12;;;;;;;10.77;4.20;;;;;;;7.89;100.00;93132.34;4858128;29;20048;-80
2024/04/06 04:05:38;;;;;;;10.50;3.60;;;;;;;7.93;100.00;93136.03;4858484;29;20046;-81
2024/04/06 04:08:04;;;;;;;10.75;3.70;;;;;;;7.95;100.00;93135.75;4860126;29;20040;-82
2024/04/06 04:10:31;;;;;;;12.30;4.05;;;;;;;7.94;100.00;93140.19;4861548;29;20129;-82
2024/04/06 04:12:57;;;;;;;5.80;3.55;;;;;;;7.95;100.00;93144.38;4861797;29;20415;-82
2024/04/06 04:15:23;;;;;;;8.30;3.33;;;;;;;7.95;100.00;93143.59;4862455;29;20045;-81
2024/04/06 04:17:49;;;;;;;11.25;3.58;;;;;;;7.93;100.00;93141.25;4862298;29;20069;-82
2024/04/06 04:20:15;;;;;;;8.48;3.65;;;;;;;7.93;100.00;93144.63;4861772;29;20064;-81
2024/04/06 04:22:40;;;;;;;12.40;3.88;;;;;;;7.94;100.00;93145.41;4861499;29;20034;-83
2024/04/06 04:25:07;;;;;;;7.80;3.63;;;;;;;7.92;100.00;93135.25;4862099;29;20041;-82
2024/04/06 04:27:33;;;;;;;9.30;3.35;;;;;;;7.94;100.00;93142.81;4861788;29;20041;-81
2024/04/06 04:29:59;;;;;;;8.82;3.70;;;;;;;7.94;100.00;93145.41;4861645;29;20058;-80
2024/04/06 04:32:25;;;;;;;12.40;3.80;;;;;;;7.95;100.00;93141.78;4864572;29;20304;-80
2024/04/06 04:34:50;;;;;;;9.65;3.70;;;;;;;7.97;100.00;93141.50;4877356;29;20056;-80
2024/04/06 04:37:16;;;;;;;9.55;3.70;;;;;;;7.96;100.00;93143.34;4879676;29;20030;-81
2024/04/06 04:39:42;;;;;;;9.30;3.83;;;;;;;7.96;100.00;93145.16;4862379;29;20144;-80
2024/04/06 04:42:08;;;;;;;8.30;3.60;;;;;;;7.96;100.00;93143.34;4864272;29;20063;-80
2024/04/06 04:44:34;;;;;;;7.45;3.60;;;;;;;7.96;100.00;93143.34;4860642;29;20041;-81
2024/04/06 04:47:00;;;;;;;9.25;3.90;;;;;;;7.99;100.00;93144.66;4860486;29;20037;-80
2024/04/06 04:49:25;;;;;;;10.73;3.53;;;;;;;7.98;100.00;93146.47;4860725;29;20135;-80
2024/04/06 04:51:51;;;;;;;8.55;3.58;;;;;;;7.99;100.00;93150.66;4860148;29;20041;-81
2024/04/06 04:54:18;;;;;;;11.13;3.53;;;;;;;8.00;100.00;93147.00;4859981;29;20049;-80
2024/04/06 04:56:43;;;;;;;14.35;4.20;;;;;;;8.00;100.00;93152.22;4859782;29;20124;-79
2024/04/06 04:59:09;;;;;;;9.73;3.90;;;;;;;8.02;100.00;93150.16;4858944;29;20129;-80
2024/04/06 05:01:35;;;;;;;12.00;3.72;;;;;;;8.04;100.00;93162.94;4858231;29;20464;-81
2024/04/06 05:04:03;;;;;;;15.73;4.28;;;;;;;8.07;100.00;93165.81;4858646;29;20053;-80
2024/04/06 05:06:29;;;;;;;9.30;3.50;;;;;;;8.09;100.00;93161.13;4860128;29;20034;-80
2024/04/06 05:08:55;;;;;;;8.75;3.63;;;;;;;8.12;100.00;93168.44;4859875;29;20085;-80
2024/04/06 05:11:20;;;;;;;10.23;3.60;;;;;;;8.17;100.00;93174.72;4860047;29;20041;-79
2024/04/06 05:13:46;;;;;;;9.18;3.72;;;;;;;8.20;100.00;93176.84;4859869;29;20066;-80
2024/04/06 05:16:11;;;;;;;7.82;3.45;;;;;;;8.25;100.00;93174.25;4859897;29;20064;-81
2024/04/06 05:18:37;;;;;;;9.95;3.55;;;;;;;8.31;100.00;93178.47;4859595;29;20116;-81
2024/04/06 05:21:03;;;;;;;9.25;3.40;;;;;;;8.37;100.00;93187.84;4858433;29;20508;-81
2024/04/06 05:23:28;;;;;;;9.77;3.25;;;;;;;8.43;100.00;93184.25;4859357;29;20049;-82
2024/04/06 05:25:55;;;;;;;10.57;3.75;;;;;;;8.48;100.00;93175.66;4857542;29;20496;-81
2024/04/06 05:28:22;;;;;;;8.85;3.25;;;;;;;8.58;100.00;93186.16;4857278;29;20088;-81
2024/04/06 05:30:49;;;;;;;9.63;3.30;;;;;;;8.64;100.00;93192.94;4859729;29;20088;-81
2024/04/06 05:33:17;;;;;;;6.45;3.33;;;;;;;8.71;100.00;93197.91;4858117;29;20056;-81
2024/04/06 05:35:43;;;;;;;12.20;3.58;;;;;;;8.74;100.00;93192.97;4859112;29;20038;-81
2024/04/06 05:38:09;;;;;;;8.48;3.20;;;;;;;8.75;100.00;93183.31;4860200;29;20081;-81
2024/04/06 05:40:42;;;;;;;9.45;3.58;;;;;;;8.85;100.00;93198.22;4857602;29;20539;-81
2024/04/06 05:43:09;;;;;;;7.43;3.40;;;;;;;8.89;100.00;93194.84;4859306;29;20041;-81
2024/04/06 05:45:38;;;;;;;9.50;3.67;;;;;;;8.94;100.00;93194.09;4877815;29;20049;-81
2024/04/06 05:48:06;;;;;;;10.15;2.97;;;;;;;9.03;100.00;93205.59;4877689;29;20092;-80
2024/04/06 05:50:40;;;;;;;7.93;3.20;;;;;;;9.08;100.00;93202.97;4877542;29;20516;-80
2024/04/06 05:53:06;;;;;;;8.48;3.28;;;;;;;9.14;100.00;93206.38;4869831;29;20034;-82
2024/04/06 05:55:32;;;;;;;6.00;3.15;;;;;;;9.20;100.00;93197.50;4850420;29;20052;-81
2024/04/06 05:57:58;;;;;;;7.15;3.28;;;;;;;9.26;100.00;93206.16;4857821;29;20136;-81
2024/04/06 06:00:26;;;;;;;8.27;3.00;;;;;;;9.30;100.00;93200.13;4857517;29;20543;-80
2024/04/06 06:02:55;;;;;;;8.02;3.05;;;;;;;9.35;100.00;93200.13;4858879;29;20038;-81
2024/04/06 06:05:21;;;;;;;7.43;3.28;;;;;;;9.41;100.00;93200.13;4862447;29;20032;-80
2024/04/06 06:07:47;;;;;;;9.73;3.13;;;;;;;9.51;100.00;93200.16;4853673;29;20041;-81
2024/04/06 06:10:13;;;;;;;8.50;3.63;;;;;;;9.58;100.00;93206.66;4855976;29;20076;-81
2024/04/06 06:12:39;;;;;;;11.73;3.47;;;;;;;9.69;100.00;93212.69;4861552;29;20045;-80
2024/04/06 06:15:05;;;;;;;11.15;3.50;;;;;;;9.75;100.00;93211.66;4858159;29;20472;-80
2024/04/06 06:17:31;;;;;;;8.57;3.20;;;;;;;9.85;100.00;93215.28;4857961;29;20504;-80
2024/04/06 06:19:56;;;;;;;10.23;3.10;;;;;;;9.92;100.00;93210.56;4848406;29;20045;-80
2024/04/06 06:22:22;;;;;;;8.00;3.20;;;;;;;10.01;100.00;93209.00;4860107;29;20045;-79
2024/04/06 06:24:49;;;;;;;9.48;3.22;;;;;;;10.15;100.00;93209.22;4867592;29;20067;-81
2024/04/06 06:29:40;;;;;;;7.68;3.00;;;;;;;10.56;100.00;93209.94;4870060;29;20543;-81
2024/04/06 06:32:06;;;;;;;6.85;3.20;;;;;;;10.94;100.00;93215.53;4881135;29;20045;-81
2024/04/06 06:34:31;;;;;;;7.85;3.00;;;;;;;11.16;100.00;93216.97;4862305;29;20089;-81
2024/04/06 06:36:57;;;;;;;7.40;3.33;;;;;;;11.38;100.00;93225.22;4874022;29;20042;-81
2024/04/06 06:39:23;;;;;;;10.90;3.22;;;;;;;11.63;100.00;93231.34;4870231;29;20228;-80
2024/04/06 06:41:50;;;;;;;7.22;2.70;;;;;;;11.90;100.00;93237.97;4876123;29;20429;-81
2024/04/06 06:44:15;;;;;;;7.15;2.95;;;;;;;12.00;100.00;93235.25;4884883;29;20036;-83
2024/04/06 06:46:41;;;;;;;9.95;3.17;;;;;;;12.16;100.00;93235.88;4873486;29;20055;-82
2024/04/06 06:49:07;;;;;;;7.80;2.50;;;;;;;12.20;100.00;93229.03;4877531;29;20056;-83
2024/04/06 06:51:33;;;;;;;8.02;3.00;;;;;;;12.45;100.00;93228.00;4867718;29;20049;-85
2024/04/06 06:53:58;;;;;;;8.93;2.83;;;;;;;12.74;100.00;93232.41;4867736;29;20105;-81
2024/04/06 06:56:24;;;;;;;4.47;2.50;;;;;;;13.11;100.00;93231.69;4850399;29;20041;-83
2024/04/06 06:58:50;;;;;;;7.40;2.75;;;;;;;13.26;100.00;93228.06;4870904;29;20771;-83
2024/04/06 07:01:16;;;;;;;4.85;2.38;;;;;;;13.66;100.00;93231.22;4852886;29;20065;-85
2024/04/06 07:03:42;;;;;;;5.88;2.58;;;;;;;13.79;100.00;93237.59;4870289;29;20047;-83
2024/04/06 07:06:10;;;;;;;9.15;3.60;;;;;;;13.74;100.00;93243.72;4848618;29;20037;-86
2024/04/06 07:08:36;;;;;;;10.48;3.92;;;;;;;14.13;100.00;93234.66;4869710;29;20044;-82
2024/04/06 07:11:05;;;;;;;10.25;3.10;;;;;;;14.53;100.00;93237.66;4863827;29;20041;-82
2024/04/06 07:13:31;;;;;;;9.70;3.35;;;;;;;15.05;100.00;93242.75;4872852;29;20049;-84
2024/04/06 07:16:09;;;;;;;5.57;2.70;;;;;;;15.65;100.00;93241.72;4868349;29;20562;-83
2024/04/06 07:18:39;;;;;;;6.15;2.58;;;;;;;15.47;100.00;93251.34;4846060;29;20037;-81
2024/04/06 07:21:13;;;;;;;8.25;2.50;;;;;;;15.22;100.00;93239.50;4868398;29;20052;-82
2024/04/06 07:23:39;;;;;;;9.23;3.30;;;;;;;14.89;100.00;93239.66;4864314;29;20029;-83
2024/04/06 07:26:05;;;;;;;5.50;2.78;;;;;;;14.68;100.00;93245.31;4853110;29;20032;-86
2024/04/06 07:28:31;;;;;;;6.55;2.97;;;;;;;14.60;100.00;93245.97;4871095;29;20383;-82
2024/04/06 07:30:57;;;;;;;7.32;3.00;;;;;;;14.65;100.00;93250.38;4862920;29;20562;-81
2024/04/06 07:33:23;;;;;;;7.88;3.20;;;;;;;14.56;100.00;93250.28;4869780;29;20049;-85
2024/04/06 07:35:49;;;;;;;9.07;2.95;;;;;;;14.64;100.00;93254.88;4850390;29;20290;-81
2024/04/06 07:38:15;;;;;;;15.05;5.25;;;;;;;14.74;100.00;93249.41;4863345;29;20349;-82
2024/04/06 07:40:41;;;;;;;8.02;3.10;;;;;;;14.67;100.00;93249.00;4868330;29;20104;-83
2024/04/06 07:43:07;;;;;;;9.13;3.15;;;;;;;14.49;100.00;93257.75;4862007;29;20710;-83
2024/04/06 07:45:33;;;;;;;4.00;2.38;;;;;;;14.50;100.00;93259.31;4876387;29;20039;-86
2024/04/06 07:47:59;;;;;;;4.20;2.22;;;;;;;14.43;100.00;93264.19;4871969;29;20044;-82
2024/04/06 07:50:25;;;;;;;11.90;3.88;;;;;;;14.36;100.00;93262.72;4873769;29;20037;-83
2024/04/06 07:52:51;;;;;;;5.78;2.88;;;;;;;14.41;100.00;93274.22;4864742;29;20052;-85
2024/04/06 07:55:17;;;;;;;7.63;3.25;;;;;;;14.31;100.00;93275.97;4868281;29;20097;-83
2024/04/06 07:57:44;;;;;;;7.40;3.20;;;;;;;14.42;100.00;93273.16;4867426;29;20049;-82
2024/04/06 08:00:11;;;;;;;8.55;3.25;;;;;;;14.40;100.00;93270.81;4840492;29;20476;-81
2024/04/06 08:02:37;;;;;;;7.40;3.10;;;;;;;14.14;100.00;93275.75;4870113;29;20073;-83
2024/04/06 08:05:02;;;;;;;6.60;2.97;;;;;;;14.31;100.00;93272.56;4868576;29;20085;-85
2024/04/06 08:07:30;;;;;;;9.02;3.17;;;;;;;14.28;100.00;93283.66;4868898;29;20052;-83
2024/04/06 08:10:01;;;;;;;6.07;2.42;;;;;;;14.37;100.00;93280.06;4838067;29;20036;-81
2024/04/06 08:12:27;;;;;;;8.00;2.60;;;;;;;14.52;100.00;93279.03;4865842;29;20045;-83
2024/04/06 08:14:52;;;;;;;6.47;3.10;;;;;;;14.78;100.00;93282.00;4867211;29;20114;-83
2024/04/06 08:17:18;;;;;;;2.92;1.92;;;;;;;14.91;100.00;93285.72;4867677;29;20128;-85
2024/04/06 08:19:44;;;;;;;4.70;2.60;;;;;;;15.01;100.00;93279.47;4865988;29;20429;-84
2024/04/06 08:22:10;;;;;;;7.03;3.00;;;;;;;14.94;100.00;93287.75;4875081;29;20037;-84
2024/04/06 08:24:35;;;;;;;5.10;2.20;;;;;;;14.88;100.00;93293.44;4873284;29;20045;-81
2024/04/06 08:27:02;;;;;;;6.10;2.70;;;;;;;14.67;100.00;93296.44;4871587;29;20052;-84
2024/04/06 08:29:28;;;;;;;6.20;2.78;;;;;;;14.87;100.00;93294.50;4856628;29;20731;-82
2024/04/06 08:31:54;;;;;;;6.10;2.60;;;;;;;14.93;100.00;93298.63;4866133;29;20044;-82
2024/04/06 08:34:19;;;;;;;5.70;2.67;;;;;;;14.90;100.00;93299.97;4869374;29;20487;-81
2024/04/06 08:36:45;;;;;;;5.93;2.63;;;;;;;14.74;100.00;93306.59;4866003;29;20037;-84
2024/04/06 08:39:11;;;;;;;5.65;2.22;;;;;;;15.00;100.00;93301.66;4869931;29;20033;-85
2024/04/06 08:41:40;;;;;;;7.20;2.83;;;;;;;14.97;100.00;93305.66;4854592;29;20491;-82
2024/04/06 08:44:10;;;;;;;7.07;3.05;;;;;;;15.23;100.00;93299.88;4853366;29;20122;-83
2024/04/06 08:46:39;;;;;;;4.53;2.33;;;;;;;15.16;100.00;93302.13;4869980;29;20078;-83
2024/04/06 08:49:08;;;;;;;9.63;2.60;;;;;;;15.35;100.00;93305.41;4872477;29;20040;-83
2024/04/06 08:51:37;;;;;;;7.45;2.60;;;;;;;15.58;100.00;93298.34;4870634;29;20049;-81
2024/04/06 08:54:04;;;;;;;8.63;2.50;;;;;;;15.75;100.00;93304.88;4871894;29;20116;-85
2024/04/06 08:56:29;;;;;;;4.85;2.22;;;;;;;15.94;100.00;93302.88;4841317;29;20057;-82
2024/04/06 08:58:55;;;;;;;7.40;2.50;;;;;;;16.20;100.00;93312.84;4876528;29;20276;-85
2024/04/06 09:01:21;;;;;;;5.88;2.60;;;;;;;16.11;100.00;93298.78;4877059;29;20388;-83
2024/04/06 09:03:47;;;;;;;7.55;2.72;;;;;;;16.02;100.00;93296.09;4874211;29;20097;-85
2024/04/06 09:06:17;;;;;;;6.60;2.50;;;;;;;16.29;100.00;93295.19;4878940;29;20041;-83
2024/04/06 09:08:43;;;;;;;11.45;2.78;;;;;;;15.86;100.00;93294.88;4873253;29;20049;-82
2024/04/06 09:11:12;;;;;;;7.80;3.25;;;;;;;15.48;100.00;93290.66;4872198;29;20032;-81
2024/04/06 09:13:39;;;;;;;12.10;3.10;;;;;;;15.65;100.00;93283.94;4876028;29;20044;-84
2024/04/06 09:16:08;;;;;;;5.00;2.58;;;;;;;16.01;100.00;93294.53;4872304;29;20044;-85
2024/04/06 09:18:34;;;;;;;5.18;2.72;;;;;;;16.07;100.00;93292.53;4868766;29;20503;-80
2024/04/06 09:21:00;;;;;;;5.60;2.42;;;;;;;16.21;100.00;93287.97;4859013;29;20040;-83
2024/04/06 09:23:25;;;;;;;6.97;2.95;;;;;;;16.17;100.00;93292.31;4875228;29;20101;-85
2024/04/06 09:26:02;;;;;;;4.50;2.40;;;;;;;16.22;100.00;93292.19;4876205;29;20098;-81
2024/04/06 09:28:28;;;;;;;2.88;1.88;;;;;;;16.00;100.00;93291.09;4873390;29;20041;-85
2024/04/06 09:30:58;;;;;;;6.20;2.42;;;;;;;16.12;100.00;93284.50;4864493;29;20056;-85
2024/04/06 09:33:26;;;;;;;5.82;2.38;;;;;;;16.27;100.00;93281.50;4866568;29;20030;-81
2024/04/06 09:35:52;;;;;;;5.72;2.55;;;;;;;16.20;100.00;93281.13;4876386;29;20347;-83
2024/04/06 09:38:18;;;;;;;4.15;1.83;;;;;;;16.19;100.00;93276.97;4857099;29;20519;-83
2024/04/06 09:40:48;;;;;;;7.55;2.70;;;;;;;16.42;100.00;93278.47;4853421;29;20063;-82
2024/04/06 09:43:14;;;;;;;7.07;2.80;;;;;;;16.30;100.00;93286.19;4872991;29;20036;-84
2024/04/06 09:45:41;;;;;;;8.35;3.10;;;;;;;16.13;100.00;93276.28;4874626;29;20152;-82
2024/04/06 09:48:09;;;;;;;6.95;2.47;;;;;;;16.37;100.00;93275.97;4873400;29;20044;-82
2024/04/06 09:50:38;;;;;;;5.28;2.35;;;;;;;16.48;100.00;93265.91;4873505;29;20566;-81
2024/04/06 09:53:05;;;;;;;7.10;3.08;;;;;;;16.52;100.00;93274.78;4872551;29;20132;-81
2024/04/06 09:55:32;;;;;;;6.93;2.58;;;;;;;16.59;100.00;93269.84;4867882;29;20037;-82
2024/04/06 09:57:58;;;;;;;5.95;2.50;;;;;;;16.65;98.21;93266.00;4881157;29;20047;-82
2024/04/06 10:00:23;;;;;;;4.97;2.10;;;;;;;16.93;96.79;93265.84;4872608;29;20119;-83
2024/04/06 10:02:50;;;;;;;4.32;2.13;;;;;;;16.44;97.44;93267.63;4872847;29;20088;-82
2024/04/06 10:05:16;;;;;;;7.07;2.65;;;;;;;16.62;100.00;93260.56;4867600;29;20404;-83
2024/04/06 10:07:48;;;;;;;7.50;2.40;;;;;;;17.15;100.00;93257.00;4870046;29;20044;-84
2024/04/06 10:10:14;;;;;;;;;;;;;;;17.35;99.61;93254.88;4873925;29;20033;-85
2024/04/06 10:12:44;;;;;;;8.90;2.53;;;;;;;17.24;94.19;93254.38;4870575;29;19923;-82
2024/04/06 10:15:13;;;;;;;7.88;2.17;;;;;;;17.16;100.00;93255.94;4872174;29;20896;-84
2024/04/06 10:17:51;;;;;;;7.68;3.15;;;;;;;16.98;95.24;93257.00;4841543;29;20132;-81
2024/04/06 10:20:28;;;;;;;5.32;1.60;;;;;;;16.79;93.81;93265.13;4873312;29;20033;-83
2024/04/06 10:22:57;;;;;;;7.65;2.38;;;;;;;16.63;95.18;93262.88;4850781;29;20147;-80
2024/04/06 10:25:37;;;;;;;3.83;1.98;;;;;;;16.63;97.68;93262.09;4848889;29;20048;-85
2024/04/06 10:28:05;;;;;;;10.02;2.47;;;;;;;16.85;100.00;93270.00;4868070;29;20120;-82
2024/04/06 10:30:37;;;;;;;7.05;2.53;;;;;;;16.89;99.32;93262.25;4868749;29;20033;-84
2024/04/06 10:33:03;;;;;;;6.28;2.30;;;;;;;17.16;99.93;93263.88;4851584;29;21372;-82
2024/04/06 10:35:29;;;;;;;4.45;1.85;;;;;;;17.20;90.61;93262.19;4868166;29;20052;-85
2024/04/06 10:37:55;;;;;;;7.43;2.78;;;;;;;17.37;99.36;93263.28;4850875;29;20033;-83
2024/04/06 10:40:33;;;;;;;6.28;2.65;;;;;;;17.38;92.29;93262.19;4870099;29;20032;-81
2024/04/06 10:43:00;;;;;;;5.90;2.55;;;;;;;17.54;94.54;93265.16;4867168;29;20293;-81
2024/04/06 10:45:25;;;;;;;8.77;2.67;;;;;;;17.42;94.01;93271.06;4868422;29;20037;-81
2024/04/06 10:47:51;;;;;;;7.60;2.60;;;;;;;17.62;92.19;93265.19;4869003;29;20396;-82
2024/04/06 10:50:18;;;;;;;9.43;2.70;;;;;;;17.73;94.02;93259.59;4866934;29;20041;-82
2024/04/06 10:52:45;;;;;;;7.18;2.60;;;;;;;17.92;90.39;93248.69;4865501;29;20041;-83
2024/04/06 10:55:15;;;;;;;5.38;2.70;;;;;;;17.63;89.19;93255.38;4870257;29;20037;-82
2024/04/06 10:57:43;;;;;;;7.03;2.65;;;;;;;17.88;89.38;93249.34;4873562;29;20029;-81
2024/04/06 11:00:11;;;;;;;5.55;2.10;;;;;;;18.11;90.47;93243.84;4871527;29;20044;-81
2024/04/06 11:02:38;;;;;;;10.25;2.88;;;;;;;18.10;86.70;93245.75;4868975;29;20096;-83
2024/04/06 11:05:05;;;;;;;5.18;2.40;;;;;;;18.18;83.89;93238.09;4867588;29;20037;-80
2024/04/06 11:07:30;;;;;;;5.22;1.95;;;;;;;18.29;86.65;93239.31;4876055;29;20499;-81
2024/04/06 11:09:57;;;;;;;4.88;2.25;;;;;;;18.36;84.14;93234.28;4876300;29;20047;-77
2024/04/06 11:12:29;;;;;;;4.15;1.70;;;;;;;18.35;82.54;93240.69;4869037;29;20048;-83
2024/04/06 11:15:01;;;;;;;4.50;2.13;;;;;;;17.91;89.11;93236.56;4867076;29;20032;-80
2024/04/06 11:17:30;;;;;;;6.50;2.22;;;;;;;17.96;83.96;93236.38;4874639;29;20088;-78
2024/04/06 11:19:58;;;;;;;6.18;2.08;;;;;;;17.79;89.91;93226.56;4870767;29;20070;-79
2024/04/06 11:22:24;;;;;;;7.00;2.08;;;;;;;17.75;85.67;93225.63;4873955;29;20040;-80
2024/04/06 11:24:51;;;;;;;5.60;2.05;;;;;;;17.54;88.63;93228.91;4861036;29;20469;-79
2024/04/06 11:27:21;;;;;;;3.00;1.63;;;;;;;17.44;88.28;93218.63;4870607;29;20562;-79
2024/04/06 11:29:48;;;;;;;8.88;2.17;;;;;;;17.42;87.70;93223.44;4869217;29;20048;-79